sensor_id;sensor_type;location;lat;lon;timestamp;P1;durP1;ratioP1;P2;durP2;ratioP2
66143;SDS011;52947;50.842;6.084;2022-10-04T00:00:58;4.60;;;1.92;;
66143;SDS011;52947;50.842;6.084;2022-10-04T00:03:31;7.05;;;2.22;;
66143;SDS011;52947;50.842;6.084;2022-10-04T00:06:02;9.20;;;2.38;;
66143;SDS011;52947;50.842;6.084;2022-10-04T00:11:04;7.22;;;2.47;;
66143;SDS011;52947;50.842;6.084;2022-10-04T00:13:34;3.95;;;2.20;;
66143;SDS011;52947;50.842;6.084;2022-10-04T00:16:04;8.50;;;2.55;;
66143;SDS011;52947;50.842;6.084;2022-10-04T00:18:37;6.93;;;2.50;;
66143;SDS011;52947;50.842;6.084;2022-10-04T00:21:07;7.90;;;2.90;;
66143;SDS011;52947;50.842;6.084;2022-10-04T00:23:43;7.75;;;2.22;;
66143;SDS011;52947;50.842;6.084;2022-10-04T00:29:29;7.43;;;2.53;;
66143;SDS011;52947;50.842;6.084;2022-10-04T00:34:57;4.90;;;2.50;;
66143;SDS011;52947;50.842;6.084;2022-10-04T00:37:26;5.82;;;2.63;;
66143;SDS011;52947;50.842;6.084;2022-10-04T00:39:59;4.53;;;2.40;;
66143;SDS011;52947;50.842;6.084;2022-10-04T00:42:35;5.15;;;2.42;;
66143;SDS011;52947;50.842;6.084;2022-10-04T00:45:10;5.85;;;2.60;;
66143;SDS011;52947;50.842;6.084;2022-10-04T00:50:43;8.85;;;2.22;;
66143;SDS011;52947;50.842;6.084;2022-10-04T00:53:19;6.82;;;2.70;;
66143;SDS011;52947;50.842;6.084;2022-10-04T00:55:55;3.95;;;2.40;;
66143;SDS011;52947;50.842;6.084;2022-10-04T00:58:27;4.35;;;1.92;;
66143;SDS011;52947;50.842;6.084;2022-10-04T01:01:00;5.60;;;2.78;;
66143;SDS011;52947;50.842;6.084;2022-10-04T01:03:31;6.30;;;2.97;;
66143;SDS011;52947;50.842;6.084;2022-10-04T01:06:02;6.43;;;2.28;;
66143;SDS011;52947;50.842;6.084;2022-10-04T01:08:33;6.80;;;2.42;;
66143;SDS011;52947;50.842;6.084;2022-10-04T01:11:08;4.95;;;2.50;;
66143;SDS011;52947;50.842;6.084;2022-10-04T01:13:40;5.80;;;2.50;;
66143;SDS011;52947;50.842;6.084;2022-10-04T01:16:13;4.72;;;2.45;;
66143;SDS011;52947;50.842;6.084;2022-10-04T01:18:45;4.88;;;2.28;;
66143;SDS011;52947;50.842;6.084;2022-10-04T01:21:23;3.72;;;2.17;;
66143;SDS011;52947;50.842;6.084;2022-10-04T01:26:43;8.30;;;2.70;;
66143;SDS011;52947;50.842;6.084;2022-10-04T01:29:13;5.47;;;2.85;;
66143;SDS011;52947;50.842;6.084;2022-10-04T01:31:43;5.97;;;2.53;;
66143;SDS011;52947;50.842;6.084;2022-10-04T01:34:13;6.75;;;2.47;;
66143;SDS011;52947;50.842;6.084;2022-10-04T01:36:42;6.70;;;2.33;;
66143;SDS011;52947;50.842;6.084;2022-10-04T01:39:11;4.75;;;2.58;;
66143;SDS011;52947;50.842;6.084;2022-10-04T01:41:46;7.47;;;2.70;;
66143;SDS011;52947;50.842;6.084;2022-10-04T01:44:21;7.88;;;3.00;;
66143;SDS011;52947;50.842;6.084;2022-10-04T01:47:00;5.25;;;2.47;;
66143;SDS011;52947;50.842;6.084;2022-10-04T01:49:31;4.55;;;2.25;;
66143;SDS011;52947;50.842;6.084;2022-10-04T01:52:04;8.10;;;2.58;;
66143;SDS011;52947;50.842;6.084;2022-10-04T01:54:35;4.22;;;2.40;;
66143;SDS011;52947;50.842;6.084;2022-10-04T01:57:11;4.05;;;2.50;;
66143;SDS011;52947;50.842;6.084;2022-10-04T01:59:43;5.90;;;2.30;;
66143;SDS011;52947;50.842;6.084;2022-10-04T02:02:18;6.15;;;2.60;;
66143;SDS011;52947;50.842;6.084;2022-10-04T02:04:50;8.55;;;2.92;;
66143;SDS011;52947;50.842;6.084;2022-10-04T02:07:22;7.60;;;2.67;;
66143;SDS011;52947;50.842;6.084;2022-10-04T02:09:53;6.82;;;2.78;;
66143;SDS011;52947;50.842;6.084;2022-10-04T02:12:26;11.80;;;2.50;;
66143;SDS011;52947;50.842;6.084;2022-10-04T02:14:57;7.68;;;2.53;;
66143;SDS011;52947;50.842;6.084;2022-10-04T02:17:27;6.95;;;2.72;;
66143;SDS011;52947;50.842;6.084;2022-10-04T02:19:57;7.57;;;2.50;;
66143;SDS011;52947;50.842;6.084;2022-10-04T02:22:27;6.60;;;2.80;;
66143;SDS011;52947;50.842;6.084;2022-10-04T02:24:55;8.23;;;2.78;;
66143;SDS011;52947;50.842;6.084;2022-10-04T02:27:25;8.48;;;2.50;;
66143;SDS011;52947;50.842;6.084;2022-10-04T02:29:59;6.53;;;2.75;;
66143;SDS011;52947;50.842;6.084;2022-10-04T02:32:29;6.70;;;2.85;;
66143;SDS011;52947;50.842;6.084;2022-10-04T02:35:16;6.28;;;3.10;;
66143;SDS011;52947;50.842;6.084;2022-10-04T02:37:45;6.18;;;2.75;;
66143;SDS011;52947;50.842;6.084;2022-10-04T02:40:16;5.93;;;2.60;;
66143;SDS011;52947;50.842;6.084;2022-10-04T02:42:48;6.03;;;2.95;;
66143;SDS011;52947;50.842;6.084;2022-10-04T02:45:23;7.35;;;2.80;;
66143;SDS011;52947;50.842;6.084;2022-10-04T02:47:56;8.82;;;2.92;;
66143;SDS011;52947;50.842;6.084;2022-10-04T02:50:27;5.70;;;2.75;;
66143;SDS011;52947;50.842;6.084;2022-10-04T02:52:58;9.15;;;3.15;;
66143;SDS011;52947;50.842;6.084;2022-10-04T02:55:29;6.22;;;3.30;;
66143;SDS011;52947;50.842;6.084;2022-10-04T02:57:59;7.18;;;3.35;;
66143;SDS011;52947;50.842;6.084;2022-10-04T03:03:09;7.55;;;2.63;;
66143;SDS011;52947;50.842;6.084;2022-10-04T03:05:43;7.85;;;3.67;;
66143;SDS011;52947;50.842;6.084;2022-10-04T03:08:14;4.90;;;2.92;;
66143;SDS011;52947;50.842;6.084;2022-10-04T03:10:42;5.63;;;2.70;;
66143;SDS011;52947;50.842;6.084;2022-10-04T03:13:14;5.20;;;2.95;;
66143;SDS011;52947;50.842;6.084;2022-10-04T03:15:45;8.07;;;2.90;;
66143;SDS011;52947;50.842;6.084;2022-10-04T03:20:42;13.43;;;3.83;;
66143;SDS011;52947;50.842;6.084;2022-10-04T03:23:12;7.63;;;3.47;;
66143;SDS011;52947;50.842;6.084;2022-10-04T03:25:43;6.75;;;3.03;;
66143;SDS011;52947;50.842;6.084;2022-10-04T03:28:18;7.95;;;3.30;;
66143;SDS011;52947;50.842;6.084;2022-10-04T03:30:47;8.35;;;3.08;;
66143;SDS011;52947;50.842;6.084;2022-10-04T03:33:18;5.55;;;3.00;;
66143;SDS011;52947;50.842;6.084;2022-10-04T03:35:49;9.00;;;3.35;;
66143;SDS011;52947;50.842;6.084;2022-10-04T03:38:20;7.28;;;3.08;;
66143;SDS011;52947;50.842;6.084;2022-10-04T03:40:50;5.80;;;3.13;;
66143;SDS011;52947;50.842;6.084;2022-10-04T03:43:23;6.28;;;3.08;;
66143;SDS011;52947;50.842;6.084;2022-10-04T03:45:56;7.10;;;3.20;;
66143;SDS011;52947;50.842;6.084;2022-10-04T03:48:29;9.40;;;3.53;;
66143;SDS011;52947;50.842;6.084;2022-10-04T03:51:00;8.30;;;3.55;;
66143;SDS011;52947;50.842;6.084;2022-10-04T03:53:34;8.40;;;3.50;;
66143;SDS011;52947;50.842;6.084;2022-10-04T03:56:08;8.60;;;3.88;;
66143;SDS011;52947;50.842;6.084;2022-10-04T03:58:40;8.43;;;3.63;;
66143;SDS011;52947;50.842;6.084;2022-10-04T04:01:11;8.65;;;3.95;;
66143;SDS011;52947;50.842;6.084;2022-10-04T04:03:50;8.02;;;3.78;;
66143;SDS011;52947;50.842;6.084;2022-10-04T04:06:23;9.82;;;4.10;;
66143;SDS011;52947;50.842;6.084;2022-10-04T04:08:53;10.73;;;4.32;;
66143;SDS011;52947;50.842;6.084;2022-10-04T04:11:24;10.27;;;4.30;;
66143;SDS011;52947;50.842;6.084;2022-10-04T04:13:56;7.68;;;4.63;;
66143;SDS011;52947;50.842;6.084;2022-10-04T04:16:29;11.38;;;3.88;;
66143;SDS011;52947;50.842;6.084;2022-10-04T04:18:58;12.02;;;4.38;;
66143;SDS011;52947;50.842;6.084;2022-10-04T04:21:29;8.23;;;3.95;;
66143;SDS011;52947;50.842;6.084;2022-10-04T04:23:58;10.82;;;4.18;;
66143;SDS011;52947;50.842;6.084;2022-10-04T04:26:33;9.45;;;4.32;;
66143;SDS011;52947;50.842;6.084;2022-10-04T04:29:07;9.65;;;4.10;;
66143;SDS011;52947;50.842;6.084;2022-10-04T04:31:43;9.35;;;5.32;;
66143;SDS011;52947;50.842;6.084;2022-10-04T04:34:18;8.85;;;5.15;;
66143;SDS011;52947;50.842;6.084;2022-10-04T04:36:47;8.70;;;4.47;;
66143;SDS011;52947;50.842;6.084;2022-10-04T04:39:16;9.30;;;4.38;;
66143;SDS011;52947;50.842;6.084;2022-10-04T04:42:03;10.20;;;4.00;;
66143;SDS011;52947;50.842;6.084;2022-10-04T04:44:45;11.95;;;4.10;;
66143;SDS011;52947;50.842;6.084;2022-10-04T04:47:18;7.97;;;4.18;;
66143;SDS011;52947;50.842;6.084;2022-10-04T04:49:53;9.38;;;3.90;;
66143;SDS011;52947;50.842;6.084;2022-10-04T04:52:24;7.93;;;4.70;;
66143;SDS011;52947;50.842;6.084;2022-10-04T04:54:53;14.30;;;4.55;;
66143;SDS011;52947;50.842;6.084;2022-10-04T04:57:22;7.63;;;4.18;;
66143;SDS011;52947;50.842;6.084;2022-10-04T04:59:53;9.18;;;4.18;;
66143;SDS011;52947;50.842;6.084;2022-10-04T05:02:28;11.13;;;4.18;;
66143;SDS011;52947;50.842;6.084;2022-10-04T05:05:20;13.23;;;4.60;;
66143;SDS011;52947;50.842;6.084;2022-10-04T05:10:30;8.32;;;4.10;;
66143;SDS011;52947;50.842;6.084;2022-10-04T05:12:59;8.52;;;4.13;;
66143;SDS011;52947;50.842;6.084;2022-10-04T05:15:32;9.07;;;4.30;;
66143;SDS011;52947;50.842;6.084;2022-10-04T05:18:01;10.45;;;4.10;;
66143;SDS011;52947;50.842;6.084;2022-10-04T05:20:39;12.37;;;4.40;;
66143;SDS011;52947;50.842;6.084;2022-10-04T05:23:10;12.77;;;4.50;;
66143;SDS011;52947;50.842;6.084;2022-10-04T05:25:39;8.43;;;4.50;;
66143;SDS011;52947;50.842;6.084;2022-10-04T05:28:08;10.35;;;4.57;;
66143;SDS011;52947;50.842;6.084;2022-10-04T05:30:42;9.35;;;4.15;;
66143;SDS011;52947;50.842;6.084;2022-10-04T05:33:18;12.50;;;4.78;;
66143;SDS011;52947;50.842;6.084;2022-10-04T05:35:58;9.52;;;4.95;;
66143;SDS011;52947;50.842;6.084;2022-10-04T05:38:40;9.60;;;4.70;;
66143;SDS011;52947;50.842;6.084;2022-10-04T05:41:13;9.00;;;4.55;;
66143;SDS011;52947;50.842;6.084;2022-10-04T05:43:48;10.50;;;4.45;;
66143;SDS011;52947;50.842;6.084;2022-10-04T05:46:20;13.20;;;4.50;;
66143;SDS011;52947;50.842;6.084;2022-10-04T05:48:51;9.68;;;4.85;;
66143;SDS011;52947;50.842;6.084;2022-10-04T05:51:22;12.18;;;4.18;;
66143;SDS011;52947;50.842;6.084;2022-10-04T05:53:51;7.53;;;4.53;;
66143;SDS011;52947;50.842;6.084;2022-10-04T05:56:28;10.35;;;5.70;;
66143;SDS011;52947;50.842;6.084;2022-10-04T05:59:20;9.50;;;4.60;;
66143;SDS011;52947;50.842;6.084;2022-10-04T06:02:06;9.38;;;5.20;;
66143;SDS011;52947;50.842;6.084;2022-10-04T06:04:46;9.45;;;4.97;;
66143;SDS011;52947;50.842;6.084;2022-10-04T06:07:33;9.23;;;4.10;;
66143;SDS011;52947;50.842;6.084;2022-10-04T06:10:08;10.57;;;4.85;;
66143;SDS011;52947;50.842;6.084;2022-10-04T06:12:54;10.88;;;4.60;;
66143;SDS011;52947;50.842;6.084;2022-10-04T06:18:34;13.13;;;4.85;;
66143;SDS011;52947;50.842;6.084;2022-10-04T06:23:58;11.13;;;4.72;;
66143;SDS011;52947;50.842;6.084;2022-10-04T06:26:29;11.93;;;5.63;;
66143;SDS011;52947;50.842;6.084;2022-10-04T06:29:06;12.35;;;4.78;;
66143;SDS011;52947;50.842;6.084;2022-10-04T06:31:48;9.88;;;5.40;;
66143;SDS011;52947;50.842;6.084;2022-10-04T06:37:37;8.63;;;4.45;;
66143;SDS011;52947;50.842;6.084;2022-10-04T06:40:32;9.45;;;4.47;;
66143;SDS011;52947;50.842;6.084;2022-10-04T06:43:19;8.30;;;4.85;;
66143;SDS011;52947;50.842;6.084;2022-10-04T06:46:02;6.45;;;4.45;;
66143;SDS011;52947;50.842;6.084;2022-10-04T06:51:12;9.88;;;3.97;;
66143;SDS011;52947;50.842;6.084;2022-10-04T06:53:50;6.10;;;3.47;;
66143;SDS011;52947;50.842;6.084;2022-10-04T06:56:30;9.18;;;3.75;;
66143;SDS011;52947;50.842;6.084;2022-10-04T06:59:14;6.65;;;4.15;;
66143;SDS011;52947;50.842;6.084;2022-10-04T07:02:03;7.63;;;3.33;;
66143;SDS011;52947;50.842;6.084;2022-10-04T07:04:36;8.15;;;3.90;;
66143;SDS011;52947;50.842;6.084;2022-10-04T07:07:31;8.70;;;3.85;;
66143;SDS011;52947;50.842;6.084;2022-10-04T07:10:14;8.60;;;3.90;;
66143;SDS011;52947;50.842;6.084;2022-10-04T07:12:52;3.90;;;2.55;;
66143;SDS011;52947;50.842;6.084;2022-10-04T07:15:27;5.43;;;3.03;;
66143;SDS011;52947;50.842;6.084;2022-10-04T07:18:02;7.53;;;3.13;;
66143;SDS011;52947;50.842;6.084;2022-10-04T07:20:34;5.57;;;2.80;;
66143;SDS011;52947;50.842;6.084;2022-10-04T07:23:05;8.98;;;3.72;;
66143;SDS011;52947;50.842;6.084;2022-10-04T07:25:42;9.93;;;3.00;;
66143;SDS011;52947;50.842;6.084;2022-10-04T07:28:13;5.25;;;3.00;;
66143;SDS011;52947;50.842;6.084;2022-10-04T07:31:03;5.18;;;2.95;;
66143;SDS011;52947;50.842;6.084;2022-10-04T07:33:41;7.80;;;3.00;;
66143;SDS011;52947;50.842;6.084;2022-10-04T07:36:11;5.30;;;2.90;;
66143;SDS011;52947;50.842;6.084;2022-10-04T07:38:49;5.80;;;2.80;;
66143;SDS011;52947;50.842;6.084;2022-10-04T07:41:20;6.43;;;3.05;;
66143;SDS011;52947;50.842;6.084;2022-10-04T07:43:54;3.85;;;2.65;;
66143;SDS011;52947;50.842;6.084;2022-10-04T07:46:34;4.68;;;2.60;;
66143;SDS011;52947;50.842;6.084;2022-10-04T07:49:13;3.85;;;2.53;;
66143;SDS011;52947;50.842;6.084;2022-10-04T07:51:43;5.13;;;2.85;;
66143;SDS011;52947;50.842;6.084;2022-10-04T07:54:23;9.07;;;3.25;;
66143;SDS011;52947;50.842;6.084;2022-10-04T07:56:58;8.80;;;3.20;;
66143;SDS011;52947;50.842;6.084;2022-10-04T07:59:34;5.15;;;3.10;;
66143;SDS011;52947;50.842;6.084;2022-10-04T08:02:12;8.02;;;3.05;;
66143;SDS011;52947;50.842;6.084;2022-10-04T08:04:52;9.73;;;3.35;;
66143;SDS011;52947;50.842;6.084;2022-10-04T08:07:30;7.38;;;3.10;;
66143;SDS011;52947;50.842;6.084;2022-10-04T08:10:15;6.78;;;3.13;;
66143;SDS011;52947;50.842;6.084;2022-10-04T08:12:51;5.22;;;3.00;;
66143;SDS011;52947;50.842;6.084;2022-10-04T08:15:27;5.82;;;3.30;;
66143;SDS011;52947;50.842;6.084;2022-10-04T08:18:04;5.95;;;3.00;;
66143;SDS011;52947;50.842;6.084;2022-10-04T08:20:44;5.80;;;2.83;;
66143;SDS011;52947;50.842;6.084;2022-10-04T08:23:19;6.15;;;3.38;;
66143;SDS011;52947;50.842;6.084;2022-10-04T08:28:43;5.60;;;2.75;;
66143;SDS011;52947;50.842;6.084;2022-10-04T08:31:35;4.93;;;2.80;;
66143;SDS011;52947;50.842;6.084;2022-10-04T08:34:37;4.13;;;2.38;;
66143;SDS011;52947;50.842;6.084;2022-10-04T08:39:57;6.10;;;2.78;;
66143;SDS011;52947;50.842;6.084;2022-10-04T08:48:50;5.80;;;2.45;;
66143;SDS011;52947;50.842;6.084;2022-10-04T08:57:21;7.47;;;2.40;;
66143;SDS011;52947;50.842;6.084;2022-10-04T09:00:23;7.50;;;2.63;;
66143;SDS011;52947;50.842;6.084;2022-10-04T09:03:18;5.18;;;2.65;;
66143;SDS011;52947;50.842;6.084;2022-10-04T09:06:07;7.43;;;2.78;;
66143;SDS011;52947;50.842;6.084;2022-10-04T09:12:19;4.32;;;2.00;;
66143;SDS011;52947;50.842;6.084;2022-10-04T09:15:14;4.10;;;2.10;;
66143;SDS011;52947;50.842;6.084;2022-10-04T09:17:53;3.13;;;2.20;;
66143;SDS011;52947;50.842;6.084;2022-10-04T09:20:27;5.68;;;2.50;;
66143;SDS011;52947;50.842;6.084;2022-10-04T09:23:19;4.00;;;2.22;;
66143;SDS011;52947;50.842;6.084;2022-10-04T09:26:17;3.67;;;1.90;;
66143;SDS011;52947;50.842;6.084;2022-10-04T09:32:01;3.95;;;2.03;;
66143;SDS011;52947;50.842;6.084;2022-10-04T09:34:52;5.00;;;2.10;;
66143;SDS011;52947;50.842;6.084;2022-10-04T09:37:39;12.38;;;2.13;;
66143;SDS011;52947;50.842;6.084;2022-10-04T09:43:27;4.63;;;2.13;;
66143;SDS011;52947;50.842;6.084;2022-10-04T09:46:23;5.53;;;2.17;;
66143;SDS011;52947;50.842;6.084;2022-10-04T09:49:27;3.60;;;2.13;;
66143;SDS011;52947;50.842;6.084;2022-10-04T09:55:01;6.10;;;1.92;;
66143;SDS011;52947;50.842;6.084;2022-10-04T09:57:47;6.18;;;2.00;;
66143;SDS011;52947;50.842;6.084;2022-10-04T10:00:37;2.83;;;1.80;;
66143;SDS011;52947;50.842;6.084;2022-10-04T10:03:19;4.03;;;1.95;;
66143;SDS011;52947;50.842;6.084;2022-10-04T10:06:12;7.07;;;2.10;;
66143;SDS011;52947;50.842;6.084;2022-10-04T10:09:04;3.72;;;2.00;;
66143;SDS011;52947;50.842;6.084;2022-10-04T10:11:41;4.55;;;2.08;;
66143;SDS011;52947;50.842;6.084;2022-10-04T10:14:39;4.32;;;1.90;;
66143;SDS011;52947;50.842;6.084;2022-10-04T10:17:31;6.28;;;2.10;;
66143;SDS011;52947;50.842;6.084;2022-10-04T10:20:26;4.45;;;2.15;;
66143;SDS011;52947;50.842;6.084;2022-10-04T10:26:15;5.63;;;2.70;;
66143;SDS011;52947;50.842;6.084;2022-10-04T10:32:08;8.30;;;2.50;;
66143;SDS011;52947;50.842;6.084;2022-10-04T10:35:00;7.68;;;2.65;;
66143;SDS011;52947;50.842;6.084;2022-10-04T10:37:42;5.53;;;2.40;;
66143;SDS011;52947;50.842;6.084;2022-10-04T10:40:24;4.28;;;2.17;;
66143;SDS011;52947;50.842;6.084;2022-10-04T10:46:15;6.13;;;2.47;;
66143;SDS011;52947;50.842;6.084;2022-10-04T10:48:56;4.07;;;2.15;;
66143;SDS011;52947;50.842;6.084;2022-10-04T10:51:56;4.72;;;1.92;;
66143;SDS011;52947;50.842;6.084;2022-10-04T10:54:52;7.43;;;2.30;;
66143;SDS011;52947;50.842;6.084;2022-10-04T10:57:46;4.88;;;2.33;;
66143;SDS011;52947;50.842;6.084;2022-10-04T11:00:34;5.85;;;2.28;;
66143;SDS011;52947;50.842;6.084;2022-10-04T11:03:26;5.78;;;2.08;;
66143;SDS011;52947;50.842;6.084;2022-10-04T11:06:29;3.95;;;1.77;;
66143;SDS011;52947;50.842;6.084;2022-10-04T11:12:38;4.87;;;2.00;;
66143;SDS011;52947;50.842;6.084;2022-10-04T11:15:37;3.80;;;1.80;;
66143;SDS011;52947;50.842;6.084;2022-10-04T11:21:14;4.33;;;2.20;;
66143;SDS011;52947;50.842;6.084;2022-10-04T11:24:10;5.30;;;2.38;;
66143;SDS011;52947;50.842;6.084;2022-10-04T11:26:55;5.90;;;2.25;;
66143;SDS011;52947;50.842;6.084;2022-10-04T11:29:44;9.30;;;2.35;;
66143;SDS011;52947;50.842;6.084;2022-10-04T11:35:47;5.40;;;2.30;;
66143;SDS011;52947;50.842;6.084;2022-10-04T11:41:26;3.03;;;2.05;;
66143;SDS011;52947;50.842;6.084;2022-10-04T11:47:17;4.32;;;2.20;;
66143;SDS011;52947;50.842;6.084;2022-10-04T11:50:06;3.30;;;1.90;;
66143;SDS011;52947;50.842;6.084;2022-10-04T11:56:20;4.15;;;2.08;;
66143;SDS011;52947;50.842;6.084;2022-10-04T11:59:06;5.30;;;2.10;;
66143;SDS011;52947;50.842;6.084;2022-10-04T12:01:48;3.85;;;2.05;;
66143;SDS011;52947;50.842;6.084;2022-10-04T12:04:58;2.28;;;1.88;;
66143;SDS011;52947;50.842;6.084;2022-10-04T12:07:52;5.50;;;2.25;;
66143;SDS011;52947;50.842;6.084;2022-10-04T12:10:28;5.53;;;2.25;;
66143;SDS011;52947;50.842;6.084;2022-10-04T12:19:08;6.22;;;2.13;;
66143;SDS011;52947;50.842;6.084;2022-10-04T12:22:05;8.18;;;2.00;;
66143;SDS011;52947;50.842;6.084;2022-10-04T12:27:59;3.65;;;2.20;;
66143;SDS011;52947;50.842;6.084;2022-10-04T12:33:52;3.67;;;1.75;;
66143;SDS011;52947;50.842;6.084;2022-10-04T12:36:29;4.47;;;2.13;;
66143;SDS011;52947;50.842;6.084;2022-10-04T12:39:14;3.72;;;2.00;;
66143;SDS011;52947;50.842;6.084;2022-10-04T12:41:54;4.05;;;2.20;;
66143;SDS011;52947;50.842;6.084;2022-10-04T12:44:35;7.93;;;2.00;;
66143;SDS011;52947;50.842;6.084;2022-10-04T12:47:31;6.63;;;2.15;;
66143;SDS011;52947;50.842;6.084;2022-10-04T12:50:12;4.85;;;2.13;;
66143;SDS011;52947;50.842;6.084;2022-10-04T12:52:52;4.25;;;1.90;;
66143;SDS011;52947;50.842;6.084;2022-10-04T12:55:40;7.15;;;2.03;;
66143;SDS011;52947;50.842;6.084;2022-10-04T12:58:19;8.20;;;2.28;;
66143;SDS011;52947;50.842;6.084;2022-10-04T13:00:56;4.25;;;2.13;;
66143;SDS011;52947;50.842;6.084;2022-10-04T13:03:40;5.53;;;2.53;;
66143;SDS011;52947;50.842;6.084;2022-10-04T13:06:27;4.85;;;2.17;;
66143;SDS011;52947;50.842;6.084;2022-10-04T13:09:10;6.97;;;2.17;;
66143;SDS011;52947;50.842;6.084;2022-10-04T13:14:37;4.40;;;2.47;;
66143;SDS011;52947;50.842;6.084;2022-10-04T13:17:14;8.00;;;2.30;;
66143;SDS011;52947;50.842;6.084;2022-10-04T13:20:15;5.72;;;2.38;;
66143;SDS011;52947;50.842;6.084;2022-10-04T13:22:53;3.83;;;2.08;;
66143;SDS011;52947;50.842;6.084;2022-10-04T13:25:28;5.03;;;2.53;;
66143;SDS011;52947;50.842;6.084;2022-10-04T13:28:09;4.88;;;1.92;;
66143;SDS011;52947;50.842;6.084;2022-10-04T13:30:49;5.78;;;2.20;;
66143;SDS011;52947;50.842;6.084;2022-10-04T13:33:28;3.28;;;2.08;;
66143;SDS011;52947;50.842;6.084;2022-10-04T13:36:05;6.43;;;2.38;;
66143;SDS011;52947;50.842;6.084;2022-10-04T13:38:45;4.25;;;2.22;;
66143;SDS011;52947;50.842;6.084;2022-10-04T13:41:42;4.18;;;2.38;;
66143;SDS011;52947;50.842;6.084;2022-10-04T13:44:31;5.28;;;2.40;;
66143;SDS011;52947;50.842;6.084;2022-10-04T13:47:14;5.45;;;1.92;;
66143;SDS011;52947;50.842;6.084;2022-10-04T13:50:00;3.85;;;1.95;;
66143;SDS011;52947;50.842;6.084;2022-10-04T13:52:45;3.73;;;2.10;;
66143;SDS011;52947;50.842;6.084;2022-10-04T13:55:38;6.93;;;2.10;;
66143;SDS011;52947;50.842;6.084;2022-10-04T13:58:33;9.25;;;2.20;;
66143;SDS011;52947;50.842;6.084;2022-10-04T14:04:22;5.55;;;2.08;;
66143;SDS011;52947;50.842;6.084;2022-10-04T14:07:12;6.35;;;2.30;;
66143;SDS011;52947;50.842;6.084;2022-10-04T14:10:00;4.15;;;2.10;;
66143;SDS011;52947;50.842;6.084;2022-10-04T14:12:51;6.43;;;2.20;;
66143;SDS011;52947;50.842;6.084;2022-10-04T14:15:49;11.15;;;2.72;;
66143;SDS011;52947;50.842;6.084;2022-10-04T14:18:48;5.07;;;2.10;;
66143;SDS011;52947;50.842;6.084;2022-10-04T14:24:48;6.07;;;2.33;;
66143;SDS011;52947;50.842;6.084;2022-10-04T14:30:38;5.75;;;2.20;;
66143;SDS011;52947;50.842;6.084;2022-10-04T14:33:31;6.03;;;2.42;;
66143;SDS011;52947;50.842;6.084;2022-10-04T14:36:27;6.75;;;2.33;;
66143;SDS011;52947;50.842;6.084;2022-10-04T14:39:15;4.13;;;2.15;;
66143;SDS011;52947;50.842;6.084;2022-10-04T14:42:02;3.17;;;1.80;;
66143;SDS011;52947;50.842;6.084;2022-10-04T14:44:57;6.40;;;2.20;;
66143;SDS011;52947;50.842;6.084;2022-10-04T14:50:43;4.60;;;2.38;;
66143;SDS011;52947;50.842;6.084;2022-10-04T14:53:24;3.88;;;2.00;;
66143;SDS011;52947;50.842;6.084;2022-10-04T14:56:13;5.43;;;2.00;;
66143;SDS011;52947;50.842;6.084;2022-10-04T14:59:07;5.90;;;2.05;;
66143;SDS011;52947;50.842;6.084;2022-10-04T15:07:53;6.60;;;2.20;;
66143;SDS011;52947;50.842;6.084;2022-10-04T15:10:26;3.20;;;2.13;;
66143;SDS011;52947;50.842;6.084;2022-10-04T15:13:02;6.75;;;2.35;;
66143;SDS011;52947;50.842;6.084;2022-10-04T15:15:39;5.00;;;2.20;;
66143;SDS011;52947;50.842;6.084;2022-10-04T15:18:23;8.18;;;2.25;;
66143;SDS011;52947;50.842;6.084;2022-10-04T15:20:57;9.65;;;2.70;;
66143;SDS011;52947;50.842;6.084;2022-10-04T15:23:32;5.55;;;1.92;;
66143;SDS011;52947;50.842;6.084;2022-10-04T15:26:04;4.45;;;2.03;;
66143;SDS011;52947;50.842;6.084;2022-10-04T15:29:05;6.10;;;1.92;;
66143;SDS011;52947;50.842;6.084;2022-10-04T15:31:51;5.05;;;1.77;;
66143;SDS011;52947;50.842;6.084;2022-10-04T15:34:29;6.60;;;1.95;;
66143;SDS011;52947;50.842;6.084;2022-10-04T15:37:13;3.60;;;1.77;;
66143;SDS011;52947;50.842;6.084;2022-10-04T15:40:11;3.03;;;1.73;;
66143;SDS011;52947;50.842;6.084;2022-10-04T15:42:55;4.35;;;1.75;;
66143;SDS011;52947;50.842;6.084;2022-10-04T15:45:45;2.47;;;1.50;;
66143;SDS011;52947;50.842;6.084;2022-10-04T15:48:45;2.85;;;1.75;;
66143;SDS011;52947;50.842;6.084;2022-10-04T15:51:34;3.67;;;1.70;;
66143;SDS011;52947;50.842;6.084;2022-10-04T15:54:30;4.50;;;1.80;;
66143;SDS011;52947;50.842;6.084;2022-10-04T15:57:16;2.67;;;1.50;;
66143;SDS011;52947;50.842;6.084;2022-10-04T16:00:01;5.03;;;1.85;;
66143;SDS011;52947;50.842;6.084;2022-10-04T16:02:45;2.25;;;1.70;;
66143;SDS011;52947;50.842;6.084;2022-10-04T16:05:25;4.07;;;1.80;;
66143;SDS011;52947;50.842;6.084;2022-10-04T16:08:04;6.70;;;1.98;;
66143;SDS011;52947;50.842;6.084;2022-10-04T16:11:02;4.43;;;2.20;;
66143;SDS011;52947;50.842;6.084;2022-10-04T16:13:54;2.72;;;1.60;;
66143;SDS011;52947;50.842;6.084;2022-10-04T16:16:49;3.50;;;1.80;;
66143;SDS011;52947;50.842;6.084;2022-10-04T16:19:39;3.38;;;1.67;;
66143;SDS011;52947;50.842;6.084;2022-10-04T16:22:16;3.25;;;1.63;;
66143;SDS011;52947;50.842;6.084;2022-10-04T16:24:47;2.40;;;1.40;;
66143;SDS011;52947;50.842;6.084;2022-10-04T16:30:24;6.78;;;1.63;;
66143;SDS011;52947;50.842;6.084;2022-10-04T16:33:05;4.47;;;2.05;;
66143;SDS011;52947;50.842;6.084;2022-10-04T16:35:40;5.68;;;1.95;;
66143;SDS011;52947;50.842;6.084;2022-10-04T16:38:14;10.32;;;1.80;;
66143;SDS011;52947;50.842;6.084;2022-10-04T16:41:00;4.20;;;2.00;;
66143;SDS011;52947;50.842;6.084;2022-10-04T16:43:37;4.00;;;1.65;;
66143;SDS011;52947;50.842;6.084;2022-10-04T16:46:17;3.30;;;1.70;;
66143;SDS011;52947;50.842;6.084;2022-10-04T16:48:52;3.83;;;2.03;;
66143;SDS011;52947;50.842;6.084;2022-10-04T16:54:38;4.53;;;1.80;;
66143;SDS011;52947;50.842;6.084;2022-10-04T16:57:18;4.95;;;2.00;;
66143;SDS011;52947;50.842;6.084;2022-10-04T16:59:49;4.90;;;2.10;;
66143;SDS011;52947;50.842;6.084;2022-10-04T17:02:35;4.72;;;2.30;;
66143;SDS011;52947;50.842;6.084;2022-10-04T17:05:19;4.35;;;1.92;;
66143;SDS011;52947;50.842;6.084;2022-10-04T17:08:15;5.80;;;2.40;;
66143;SDS011;52947;50.842;6.084;2022-10-04T17:13:57;7.95;;;2.20;;
66143;SDS011;52947;50.842;6.084;2022-10-04T17:16:30;5.88;;;2.47;;
66143;SDS011;52947;50.842;6.084;2022-10-04T17:19:19;5.65;;;2.50;;
66143;SDS011;52947;50.842;6.084;2022-10-04T17:21:58;4.55;;;2.22;;
66143;SDS011;52947;50.842;6.084;2022-10-04T17:24:41;6.60;;;3.90;;
66143;SDS011;52947;50.842;6.084;2022-10-04T17:27:26;5.22;;;2.35;;
66143;SDS011;52947;50.842;6.084;2022-10-04T17:30:14;7.38;;;2.30;;
66143;SDS011;52947;50.842;6.084;2022-10-04T17:32:51;7.28;;;2.35;;
66143;SDS011;52947;50.842;6.084;2022-10-04T17:38:24;7.53;;;2.75;;
66143;SDS011;52947;50.842;6.084;2022-10-04T17:41:02;5.32;;;3.58;;
66143;SDS011;52947;50.842;6.084;2022-10-04T17:43:40;6.55;;;3.15;;
66143;SDS011;52947;50.842;6.084;2022-10-04T17:46:16;5.38;;;2.20;;
66143;SDS011;52947;50.842;6.084;2022-10-04T17:48:51;4.53;;;2.67;;
66143;SDS011;52947;50.842;6.084;2022-10-04T17:51:43;4.82;;;2.65;;
66143;SDS011;52947;50.842;6.084;2022-10-04T17:54:32;6.50;;;2.45;;
66143;SDS011;52947;50.842;6.084;2022-10-04T17:57:26;6.00;;;2.50;;
66143;SDS011;52947;50.842;6.084;2022-10-04T18:00:05;4.00;;;2.42;;
66143;SDS011;52947;50.842;6.084;2022-10-04T18:02:47;6.45;;;2.50;;
66143;SDS011;52947;50.842;6.084;2022-10-04T18:05:27;5.07;;;2.90;;
66143;SDS011;52947;50.842;6.084;2022-10-04T18:07:59;3.97;;;2.60;;
66143;SDS011;52947;50.842;6.084;2022-10-04T18:10:31;6.68;;;2.72;;
66143;SDS011;52947;50.842;6.084;2022-10-04T18:13:02;8.35;;;2.92;;
66143;SDS011;52947;50.842;6.084;2022-10-04T18:15:39;3.20;;;2.35;;
66143;SDS011;52947;50.842;6.084;2022-10-04T18:18:14;3.85;;;2.38;;